Time;durP1;ratioP1;P1;durP2;ratioP2;P2;SDS_P1;SDS_P2;PMS_P1;PMS_P2;Temp;Humidity;BMP_temperature;BMP_pressure;BME280_temperature;BME280_humidity;BME280_pressure;Samples;Min_cycle;Max_cycle;Signal;HPM_P1;HPM_P2
2022/02/12 00:01:02;;;;;;;9.55;4.07;;;0.80;65.40;;;;;;5014193;28;20657;-67
2022/02/12 00:03:29;;;;;;;6.78;3.40;;;0.80;65.90;;;;;;5017460;28;20210;-67
2022/02/12 00:05:56;;;;;;;8.07;3.55;;;0.80;66.20;;;;;;5033864;28;20541;-68
2022/02/12 00:08:23;;;;;;;7.40;3.78;;;0.90;66.00;;;;;;5030631;28;20191;-67
2022/02/12 00:10:51;;;;;;;4.63;3.03;;;0.80;64.60;;;;;;5013905;28;20195;-68
2022/02/12 00:13:18;;;;;;;6.32;3.42;;;0.80;63.30;;;;;;5014617;28;20650;-67
2022/02/12 00:15:45;;;;;;;4.82;3.78;;;0.80;62.40;;;;;;5033741;28;20548;-68
2022/02/12 00:18:12;;;;;;;11.20;6.50;;;0.70;62.10;;;;;;5033388;28;20195;-69
2022/02/12 00:20:39;;;;;;;12.07;5.47;;;0.40;63.90;;;;;;5013391;28;20188;-67
2022/02/12 00:23:14;;;;;;;10.00;4.97;;;0.40;65.30;;;;;;5021937;28;20553;-67
2022/02/12 00:25:41;;;;;;;25.25;5.65;;;0.30;66.40;;;;;;5033915;28;20522;-68
2022/02/12 00:28:09;;;;;;;5.82;4.20;;;0.30;67.00;;;;;;5024880;28;20188;-67
2022/02/12 00:30:36;;;;;;;11.43;6.03;;;0.30;67.50;;;;;;5013431;28;20705;-67
2022/02/12 00:33:08;;;;;;;8.00;4.95;;;0.40;67.40;;;;;;5019349;28;20199;-68
2022/02/12 00:35:35;;;;;;;8.32;4.72;;;0.40;67.20;;;;;;5033165;28;20230;-68
2022/02/12 00:38:02;;;;;;;7.65;4.75;;;0.40;66.90;;;;;;5026697;28;20191;-67
2022/02/12 00:40:29;;;;;;;9.90;5.28;;;0.30;65.40;;;;;;5013101;28;20187;-67
2022/02/12 00:42:56;;;;;;;8.55;3.97;;;0.30;65.90;;;;;;5016755;28;20760;-68
2022/02/12 00:45:24;;;;;;;6.93;3.70;;;0.30;66.40;;;;;;5033266;28;20624;-67
2022/02/12 00:47:51;;;;;;;8.38;4.20;;;0.30;66.90;;;;;;5029559;28;20172;-68
2022/02/12 00:50:18;;;;;;;6.85;3.50;;;0.20;68.30;;;;;;5013298;28;20611;-68
2022/02/12 00:52:45;;;;;;;6.75;3.63;;;0.20;68.70;;;;;;5013233;28;20262;-69
2022/02/12 00:55:12;;;;;;;6.05;3.80;;;0.30;69.00;;;;;;5029075;28;20191;-67
2022/02/12 00:57:39;;;;;;;6.75;4.05;;;0.30;68.70;;;;;;5031658;28;20225;-67
2022/02/12 01:00:08;;;;;;;7.40;4.53;;;0.30;68.20;;;;;;5032758;28;20202;-69
2022/02/12 01:02:36;;;;;;;8.18;5.45;;;0.30;68.10;;;;;;5012646;28;20293;-67
2022/02/12 01:05:04;;;;;;;5.95;4.55;;;0.30;68.10;;;;;;5012956;28;20195;-67
2022/02/12 01:07:31;;;;;;;6.45;4.03;;;0.30;67.80;;;;;;5030409;28;20183;-67
2022/02/12 01:09:58;;;;;;;8.82;5.03;;;0.30;67.30;;;;;;5032519;28;20183;-67
2022/02/12 01:12:24;;;;;;;6.60;4.07;;;0.20;66.60;;;;;;5014612;28;20760;-67
2022/02/12 01:14:51;;;;;;;5.32;3.63;;;0.20;66.20;;;;;;5012761;28;20192;-68
2022/02/12 01:17:18;;;;;;;8.00;4.10;;;0.10;65.80;;;;;;5027384;28;20187;-67
2022/02/12 01:19:49;;;;;;;13.40;4.85;;;0.10;66.20;;;;;;5032476;28;20300;-67
2022/02/12 01:22:16;;;;;;;6.30;4.18;;;0.00;66.70;;;;;;5017186;28;20671;-67
2022/02/12 01:24:43;;;;;;;12.20;4.20;;;0.00;66.80;;;;;;5012412;28;20242;-67
2022/02/12 01:27:10;;;;;;;6.78;3.80;;;-0.10;66.70;;;;;;5024931;28;20238;-67
2022/02/12 01:29:37;;;;;;;5.45;4.25;;;-0.10;67.20;;;;;;5032382;28;20245;-67
2022/02/12 01:32:05;;;;;;;6.85;4.75;;;-0.20;66.20;;;;;;5019203;28;20681;-67
2022/02/12 01:34:36;;;;;;;7.32;4.50;;;-0.30;65.30;;;;;;5012440;28;20191;-67
2022/02/12 01:37:06;;;;;;;6.35;3.88;;;-0.40;65.30;;;;;;5022989;28;20187;-67
2022/02/12 01:39:33;;;;;;;10.23;4.10;;;-0.40;65.80;;;;;;5032178;28;20183;-67
2022/02/12 01:42:01;;;;;;;6.22;4.32;;;-0.40;66.40;;;;;;5020611;28;20231;-67
2022/02/12 01:44:30;;;;;;;11.82;4.70;;;-0.40;66.00;;;;;;5012076;28;20354;-68
2022/02/12 01:46:58;;;;;;;6.70;4.38;;;-0.40;66.40;;;;;;5020719;28;20253;-67
2022/02/12 01:49:25;;;;;;;6.78;4.30;;;-0.50;66.40;;;;;;5031938;28;20295;-67
2022/02/12 01:51:53;;;;;;;8.77;4.18;;;-0.50;65.80;;;;;;5017674;28;20220;-67
2022/02/12 01:54:23;;;;;;;6.78;4.25;;;-0.60;66.40;;;;;;5011876;28;20219;-67
2022/02/12 01:56:52;;;;;;;4.78;3.42;;;-0.60;67.90;;;;;;5023458;28;20341;-68
2022/02/12 01:59:21;;;;;;;8.48;4.47;;;-0.70;68.40;;;;;;5031533;28;20199;-67
2022/02/12 02:01:48;;;;;;;6.40;4.32;;;-0.70;68.70;;;;;;5014360;28;20635;-68
2022/02/12 02:04:16;;;;;;;6.03;4.22;;;-0.70;68.60;;;;;;5012011;28;20269;-67
2022/02/12 02:06:43;;;;;;;8.55;3.97;;;-0.70;68.50;;;;;;5026622;28;20229;-67
2022/02/12 02:09:11;;;;;;;7.65;4.80;;;-0.60;68.40;;;;;;5031379;28;20201;-67
2022/02/12 02:11:40;;;;;;;5.65;3.92;;;-0.60;68.00;;;;;;5016541;28;20291;-67
2022/02/12 02:14:10;;;;;;;7.75;4.28;;;-0.70;67.20;;;;;;5011687;28;20247;-67
2022/02/12 02:16:37;;;;;;;6.18;4.97;;;-0.70;66.90;;;;;;5024719;28;20307;-67
2022/02/12 02:19:05;;;;;;;6.80;3.80;;;-0.70;66.90;;;;;;5019428;28;20642;-67
2022/02/12 02:21:35;;;;;;;9.88;4.43;;;-0.70;67.90;;;;;;5011637;28;20268;-67
2022/02/12 02:24:04;;;;;;;7.28;4.93;;;-0.80;69.00;;;;;;5020792;28;20206;-67
2022/02/12 02:26:32;;;;;;;10.88;5.90;;;-0.80;69.20;;;;;;5031219;28;20190;-67
2022/02/12 02:28:59;;;;;;;12.07;5.97;;;-0.90;69.10;;;;;;5021492;28;20242;-67
2022/02/12 02:31:26;;;;;;;10.82;5.45;;;-0.90;69.70;;;;;;5010969;28;20725;-67
2022/02/12 02:33:53;;;;;;;7.82;4.10;;;-0.90;70.10;;;;;;5015364;28;20188;-68
2022/02/12 02:36:20;;;;;;;6.05;4.68;;;-0.90;70.60;;;;;;5030650;28;20241;-67
2022/02/12 02:38:47;;;;;;;6.95;4.38;;;-1.00;70.00;;;;;;5023603;28;20183;-74
2022/02/12 02:41:15;;;;;;;6.10;3.78;;;-1.00;70.90;;;;;;5011549;28;20601;-67
2022/02/12 02:43:42;;;;;;;6.03;3.33;;;-0.90;71.10;;;;;;5014851;28;20242;-70
2022/02/12 02:46:09;;;;;;;5.53;3.83;;;-1.00;71.30;;;;;;5030726;28;20720;-67
2022/02/12 02:48:36;;;;;;;5.47;4.45;;;-1.10;72.00;;;;;;5026505;28;20234;-67
2022/02/12 02:56:33;;;;;;;10.00;4.15;;;-1.10;73.00;;;;;;5030520;28;20268;-67
2022/02/12 02:59:00;;;;;;;4.95;3.80;;;-1.20;72.80;;;;;;5023676;28;20626;-67
2022/02/12 03:01:28;;;;;;;4.35;3.28;;;-1.20;72.40;;;;;;5011003;28;20191;-67
2022/02/12 03:03:55;;;;;;;4.90;3.53;;;-1.20;72.20;;;;;;5014772;28;20215;-67
2022/02/12 03:06:25;;;;;;;8.95;3.35;;;-1.20;72.10;;;;;;5030467;28;20222;-69
2022/02/12 03:08:52;;;;;;;4.50;3.42;;;-1.20;72.00;;;;;;5025507;28;20234;-67
2022/02/12 03:11:19;;;;;;;3.60;3.20;;;-1.10;72.10;;;;;;5010928;28;20566;-67
2022/02/12 03:13:49;;;;;;;4.90;2.90;;;-1.10;72.10;;;;;;5022103;28;20269;-68
2022/02/12 03:16:16;;;;;;;6.30;3.47;;;-1.00;72.30;;;;;;5030619;28;20219;-69
2022/02/12 03:18:45;;;;;;;7.13;5.22;;;-1.00;72.30;;;;;;5018454;28;20187;-67
2022/02/12 03:21:12;;;;;;;6.20;3.65;;;-1.00;71.40;;;;;;5010539;28;20187;-67
2022/02/12 03:23:40;;;;;;;4.65;2.92;;;-1.10;70.90;;;;;;5020592;28;20260;-67
2022/02/12 03:26:08;;;;;;;6.10;3.70;;;-1.10;70.90;;;;;;5030644;28;20241;-67
2022/02/12 03:28:36;;;;;;;3.20;2.83;;;-1.20;69.90;;;;;;5020620;28;20235;-67
2022/02/12 03:31:05;;;;;;;12.30;4.32;;;-1.20;69.40;;;;;;5010836;28;20199;-67
2022/02/12 03:33:32;;;;;;;5.00;2.90;;;-1.20;69.10;;;;;;5018479;28;20343;-67
2022/02/12 03:35:59;;;;;;;5.18;3.30;;;-1.30;67.90;;;;;;5030383;28;20226;-67
2022/02/12 03:38:27;;;;;;;5.45;2.92;;;-1.40;67.50;;;;;;5023057;28;20188;-67
2022/02/12 03:40:58;;;;;;;6.10;3.75;;;-1.40;67.80;;;;;;5010643;28;20231;-67
2022/02/12 03:43:25;;;;;;;5.03;3.63;;;-1.40;68.50;;;;;;5016014;28;20215;-67
2022/02/12 03:45:53;;;;;;;5.43;2.95;;;-1.40;68.80;;;;;;5030181;28;20661;-67
2022/02/12 03:48:21;;;;;;;4.35;3.72;;;-1.40;69.60;;;;;;5024591;28;20274;-68
2022/02/12 03:50:48;;;;;;;6.30;3.45;;;-1.40;70.00;;;;;;5010325;28;20214;-67
2022/02/12 03:53:15;;;;;;;4.88;3.42;;;-1.40;70.30;;;;;;5013659;28;20191;-69
2022/02/12 03:55:42;;;;;;;4.03;2.60;;;-1.40;69.20;;;;;;5030289;28;20253;-67
2022/02/12 03:58:10;;;;;;;5.30;2.70;;;-1.40;67.60;;;;;;5027352;28;20224;-67
2022/02/12 04:00:37;;;;;;;5.25;3.25;;;-1.40;65.80;;;;;;5010137;28;20342;-67
2022/02/12 04:03:04;;;;;;;5.43;3.25;;;-1.50;66.30;;;;;;5010508;28;20211;-68
2022/02/12 04:05:33;;;;;;;4.95;2.97;;;-1.60;67.50;;;;;;5029887;28;20195;-72
2022/02/12 04:08:00;;;;;;;6.63;3.53;;;-1.60;68.00;;;;;;5029842;28;20195;-68
2022/02/12 04:10:28;;;;;;;10.57;5.15;;;-1.60;68.30;;;;;;5010635;28;20204;-68
2022/02/12 04:12:55;;;;;;;5.70;4.85;;;-1.60;68.90;;;;;;5010524;28;20250;-68
2022/02/12 04:15:25;;;;;;;10.70;5.40;;;-1.60;68.60;;;;;;5028474;28;20241;-67
2022/02/12 04:17:52;;;;;;;10.25;4.97;;;-1.60;68.80;;;;;;5030286;28;20304;-67
2022/02/12 04:20:22;;;;;;;7.40;4.60;;;-1.60;69.00;;;;;;5012124;28;20211;-68
2022/02/12 04:22:51;;;;;;;7.03;5.18;;;-1.60;68.50;;;;;;5010343;28;20576;-67
2022/02/12 04:25:20;;;;;;;10.57;6.78;;;-1.60;68.40;;;;;;5026592;28;20215;-67
2022/02/12 04:27:47;;;;;;;11.07;6.65;;;-1.70;70.10;;;;;;5029949;28;20195;-71
2022/02/12 04:30:15;;;;;;;7.72;5.50;;;-1.70;71.10;;;;;;5012759;28;20249;-67
2022/02/12 04:32:44;;;;;;;11.63;6.72;;;-1.60;71.30;;;;;;5020174;28;20191;-67
2022/02/12 04:35:13;;;;;;;9.77;6.47;;;-1.60;71.80;;;;;;5033787;28;20187;-67
2022/02/12 04:37:40;;;;;;;7.40;5.10;;;-1.60;71.00;;;;;;5023423;28;20196;-68
2022/02/12 04:40:09;;;;;;;6.60;4.60;;;-1.60;70.20;;;;;;5013851;28;20192;-67
2022/02/12 04:42:37;;;;;;;7.40;5.30;;;-1.60;69.80;;;;;;5021503;28;20241;-67
2022/02/12 04:45:05;;;;;;;7.60;5.53;;;-1.70;68.70;;;;;;5033532;28;20674;-67
2022/02/12 04:47:32;;;;;;;9.38;5.68;;;-1.70;68.80;;;;;;5025495;28;20270;-67
2022/02/12 04:49:59;;;;;;;9.05;8.15;;;-1.70;69.00;;;;;;5013467;28;20254;-67
2022/02/12 04:52:26;;;;;;;10.70;9.38;;;-1.70;69.60;;;;;;5012367;28;20188;-67
2022/02/12 04:54:53;;;;;;;10.43;7.55;;;-1.70;70.10;;;;;;5013451;28;20196;-67
2022/02/12 04:57:22;;;;;;;9.52;6.30;;;-1.60;70.20;;;;;;5012119;28;20242;-67
2022/02/12 04:59:49;;;;;;;8.15;6.32;;;-1.60;69.70;;;;;;5021456;28;20183;-67
2022/02/12 05:02:15;;;;;;;9.55;7.15;;;-1.60;69.60;;;;;;5032736;28;20194;-67
2022/02/12 05:04:43;;;;;;;13.77;6.45;;;-1.70;68.10;;;;;;5031761;28;20216;-67
2022/02/12 05:07:10;;;;;;;8.75;5.97;;;-1.80;67.70;;;;;;5032966;28;20281;-67
2022/02/12 05:09:38;;;;;;;6.45;5.20;;;-1.80;67.40;;;;;;5030846;28;20206;-66
2022/02/12 05:12:06;;;;;;;7.85;5.90;;;-1.80;67.90;;;;;;5013062;28;20647;-67
2022/02/12 05:14:35;;;;;;;9.70;5.60;;;-1.80;67.70;;;;;;5012670;28;20273;-74
2022/02/12 05:17:02;;;;;;;5.82;3.85;;;-1.80;67.40;;;;;;5032721;28;20268;-67
2022/02/12 05:19:29;;;;;;;7.65;4.50;;;-1.90;67.40;;;;;;5032762;28;20218;-67
2022/02/12 05:21:56;;;;;;;9.00;3.85;;;-1.80;67.30;;;;;;5012755;28;20196;-69
2022/02/12 05:24:24;;;;;;;5.05;4.18;;;-1.90;66.50;;;;;;5025938;28;20250;-67
2022/02/12 05:26:51;;;;;;;8.07;4.55;;;-1.90;66.30;;;;;;5032310;28;20191;-67
2022/02/12 05:29:18;;;;;;;5.97;3.85;;;-2.00;65.70;;;;;;5018994;28;20188;-69
2022/02/12 05:31:47;;;;;;;5.00;3.45;;;-2.00;65.90;;;;;;5012515;28;20219;-67
2022/02/12 05:34:14;;;;;;;6.05;3.95;;;-2.00;66.60;;;;;;5023301;28;20187;-67
2022/02/12 05:36:40;;;;;;;5.85;3.95;;;-2.10;66.20;;;;;;5032410;28;20284;-67
2022/02/12 05:39:09;;;;;;;4.70;3.45;;;-2.20;65.50;;;;;;5020830;28;20215;-67
2022/02/12 05:41:37;;;;;;;6.47;4.22;;;-2.20;64.90;;;;;;5012831;28;20226;-67
2022/02/12 05:44:04;;;;;;;4.43;3.35;;;-2.20;65.50;;;;;;5011498;28;20611;-67
2022/02/12 05:46:31;;;;;;;6.30;3.53;;;-2.30;64.30;;;;;;5012375;28;20184;-67
2022/02/12 05:49:00;;;;;;;4.30;3.63;;;-2.30;64.30;;;;;;5023016;28;20580;-68
2022/02/12 05:51:31;;;;;;;26.10;13.10;;;-2.30;64.80;;;;;;5032938;28;20546;-68
2022/02/12 05:53:58;;;;;;;8.52;4.82;;;-2.40;65.60;;;;;;5022089;28;20204;-68
2022/02/12 05:56:25;;;;;;;5.78;3.70;;;-2.40;65.50;;;;;;5013152;28;20219;-69
2022/02/12 05:58:52;;;;;;;16.25;7.05;;;-2.40;65.30;;;;;;5012435;28;20230;-68
2022/02/12 06:01:19;;;;;;;13.13;8.40;;;-2.40;65.00;;;;;;5012590;28;20285;-68
2022/02/12 06:03:46;;;;;;;14.57;6.70;;;-2.40;66.20;;;;;;5022731;28;20223;-69
2022/02/12 06:06:16;;;;;;;12.50;7.57;;;-2.40;67.30;;;;;;5032693;28;20191;-68
2022/02/12 06:08:43;;;;;;;12.80;5.50;;;-2.40;68.20;;;;;;5022376;28;20187;-68
2022/02/12 06:11:10;;;;;;;13.77;8.38;;;-2.40;68.00;;;;;;5012755;28;20192;-68
2022/02/12 06:13:37;;;;;;;15.70;9.70;;;-2.50;67.60;;;;;;5019814;28;20215;-69
2022/02/12 06:16:05;;;;;;;15.20;7.55;;;-2.60;69.40;;;;;;5031398;28;20227;-71
2022/02/12 06:18:31;;;;;;;15.88;6.75;;;-2.60;70.10;;;;;;5012222;28;20641;-68
2022/02/12 06:20:58;;;;;;;11.05;9.32;;;-2.60;70.40;;;;;;5012171;28;20192;-68
2022/02/12 06:23:27;;;;;;;10.10;6.70;;;-2.60;70.00;;;;;;5030587;28;20187;-68
2022/02/12 06:25:54;;;;;;;32.90;20.35;;;-2.50;69.70;;;;;;5031813;28;20672;-68
2022/02/12 06:28:21;;;;;;;27.58;15.98;;;-2.50;68.90;;;;;;5013684;28;20195;-68
2022/02/12 06:30:47;;;;;;;78.75;30.05;;;-2.50;68.70;;;;;;5012188;28;20199;-69
2022/02/12 06:33:15;;;;;;;69.97;29.73;;;-2.60;69.20;;;;;;5027302;28;20187;-68
2022/02/12 06:35:42;;;;;;;44.28;16.58;;;-2.60;70.20;;;;;;5031865;28;20225;-67
2022/02/12 06:38:10;;;;;;;34.75;18.85;;;-2.70;70.50;;;;;;5015669;28;20226;-68
2022/02/12 06:40:39;;;;;;;50.88;25.42;;;-2.70;71.20;;;;;;5012179;28;20203;-68
2022/02/12 06:43:06;;;;;;;11.10;8.32;;;-2.70;71.70;;;;;;5025191;28;20242;-76
2022/02/12 06:45:34;;;;;;;10.30;6.68;;;-2.70;71.10;;;;;;5031695;28;20527;-68
2022/02/12 06:48:01;;;;;;;10.88;8.88;;;-2.70;70.50;;;;;;5017895;28;20188;-68
2022/02/12 06:50:28;;;;;;;12.00;7.85;;;-2.50;70.60;;;;;;5011842;28;20196;-68
2022/02/12 06:52:55;;;;;;;14.60;9.68;;;-2.30;70.70;;;;;;5022501;28;20195;-68
2022/02/12 06:55:22;;;;;;;11.98;8.18;;;-2.20;70.70;;;;;;5031397;28;20215;-68
2022/02/12 06:57:51;;;;;;;15.07;9.27;;;-2.00;70.10;;;;;;5030839;28;20187;-68
2022/02/12 07:00:19;;;;;;;13.23;8.60;;;-1.80;69.30;;;;;;5031624;28;20265;-69
2022/02/12 07:02:59;;;;;;;12.27;7.53;;;-1.50;69.20;;;;;;5021505;28;20242;-68
2022/02/12 07:05:27;;;;;;;9.50;6.88;;;-1.30;67.80;;;;;;5009107;28;20204;-68
2022/02/12 07:07:54;;;;;;;9.93;5.82;;;-1.10;66.90;;;;;;5021215;28;20211;-68
2022/02/12 07:10:22;;;;;;;10.88;7.28;;;-1.00;65.10;;;;;;5031927;28;20249;-69
2022/02/12 07:12:49;;;;;;;14.63;6.88;;;-0.80;65.00;;;;;;5022313;28;20303;-68
2022/02/12 07:15:17;;;;;;;312.67;135.35;;;-0.50;64.40;;;;;;5011849;28;20258;-69
2022/02/12 07:17:45;;;;;;;24.25;9.90;;;-0.10;63.90;;;;;;5018667;28;20187;-68
2022/02/12 07:20:14;;;;;;;30.77;14.05;;;0.00;62.40;;;;;;5031502;28;20190;-68
2022/02/12 07:22:41;;;;;;;37.38;11.93;;;0.20;63.40;;;;;;5024884;28;20266;-68
2022/02/12 07:25:09;;;;;;;38.50;16.50;;;0.50;63.00;;;;;;5012143;28;20200;-68
2022/02/12 07:27:38;;;;;;;33.35;16.88;;;0.90;61.80;;;;;;5016668;28;20206;-68
2022/02/12 07:30:07;;;;;;;28.27;16.98;;;1.20;61.20;;;;;;5032078;28;20265;-68
2022/02/12 07:32:36;;;;;;;51.75;23.00;;;1.70;59.80;;;;;;5026972;28;20200;-68
2022/02/12 07:35:03;;;;;;;60.33;22.90;;;2.20;59.20;;;;;;5011914;28;20624;-68
2022/02/12 07:37:30;;;;;;;41.17;19.15;;;2.70;59.10;;;;;;5014871;28;20323;-68
2022/02/12 07:39:57;;;;;;;30.80;18.30;;;3.10;56.00;;;;;;5027809;28;20188;-68
2022/02/12 07:42:24;;;;;;;30.50;17.02;;;3.50;55.50;;;;;;5028418;28;20245;-69
2022/02/12 07:44:50;;;;;;;31.30;15.65;;;3.80;53.60;;;;;;5030425;28;20245;-69
2022/02/12 07:47:17;;;;;;;21.58;11.93;;;4.30;53.40;;;;;;5028685;28;20594;-69
2022/02/12 07:49:46;;;;;;;16.55;12.50;;;4.70;52.40;;;;;;5026595;28;20315;-68
2022/02/12 07:52:12;;;;;;;12.27;8.05;;;5.10;51.40;;;;;;5030646;28;20222;-68
2022/02/12 07:54:39;;;;;;;11.57;6.72;;;5.60;51.10;;;;;;5029681;28;20750;-68
2022/02/12 07:57:06;;;;;;;7.15;5.35;;;6.10;50.10;;;;;;5030121;28;20620;-69
2022/02/12 07:59:33;;;;;;;10.73;5.95;;;6.50;49.20;;;;;;5029697;28;20689;-69
2022/02/12 08:02:00;;;;;;;21.25;12.00;;;6.90;47.20;;;;;;5030460;28;20226;-69
2022/02/12 08:04:28;;;;;;;12.63;7.35;;;7.20;46.80;;;;;;5024012;28;20195;-69
2022/02/12 08:09:41;;;;;;;7.93;5.45;;;8.20;44.60;;;;;;5028218;28;20197;-70
2022/02/12 08:12:13;;;;;;;7.47;4.55;;;8.70;43.90;;;;;;5034509;28;20292;-69
2022/02/12 08:14:41;;;;;;;6.47;4.05;;;9.20;43.10;;;;;;5034585;28;20294;-69
2022/02/12 08:17:08;;;;;;;7.90;5.20;;;9.70;42.40;;;;;;5034644;28;20191;-69
2022/02/12 08:19:35;;;;;;;8.38;5.70;;;10.20;40.00;;;;;;5034338;28;20253;-69
2022/02/12 08:22:04;;;;;;;7.07;5.50;;;10.70;38.80;;;;;;5034619;28;20199;-69
2022/02/12 08:24:32;;;;;;;7.60;5.40;;;11.20;37.70;;;;;;5033317;28;20254;-69
2022/02/12 08:26:59;;;;;;;8.63;5.97;;;11.70;37.10;;;;;;5028866;28;20191;-69
2022/02/12 08:29:28;;;;;;;8.68;5.95;;;12.20;36.50;;;;;;5026469;28;20191;-69
2022/02/12 08:31:55;;;;;;;8.05;5.45;;;12.60;34.80;;;;;;5029888;28;20286;-69
2022/02/12 08:34:23;;;;;;;8.27;5.35;;;13.20;34.10;;;;;;5028416;28;20619;-69
2022/02/12 08:36:55;;;;;;;8.25;5.45;;;13.70;33.20;;;;;;5032463;28;20297;-76
2022/02/12 08:39:23;;;;;;;6.45;4.85;;;14.10;31.60;;;;;;5032480;28;20187;-69
2022/02/12 08:41:51;;;;;;;5.97;4.38;;;14.50;31.50;;;;;;5029565;28;20183;-69
2022/02/12 08:44:18;;;;;;;5.13;3.33;;;15.00;30.40;;;;;;5033074;28;20265;-70
2022/02/12 08:46:46;;;;;;;7.38;4.35;;;15.40;30.40;;;;;;5032820;28;20630;-70
2022/02/12 08:49:14;;;;;;;7.25;3.67;;;15.90;29.00;;;;;;5034098;28;20207;-68
2022/02/12 08:51:41;;;;;;;6.20;4.18;;;16.20;28.60;;;;;;5032889;28;20184;-69
2022/02/12 08:54:10;;;;;;;3.90;3.20;;;16.70;27.60;;;;;;5033025;28;20187;-70
2022/02/12 08:56:40;;;;;;;5.25;3.78;;;17.20;27.50;;;;;;5031513;28;20305;-69
2022/02/12 08:59:08;;;;;;;5.40;4.13;;;17.70;26.10;;;;;;5032959;28;20237;-69
2022/02/12 09:01:37;;;;;;;6.20;4.20;;;18.00;25.70;;;;;;5029077;28;20500;-70
2022/02/12 09:04:05;;;;;;;4.75;3.53;;;18.50;25.50;;;;;;5030379;28;20191;-69
2022/02/12 09:06:32;;;;;;;5.23;3.83;;;19.20;24.50;;;;;;5021775;28;20669;-69
2022/02/12 09:09:01;;;;;;;11.93;4.73;;;20.10;24.70;;;;;;5033423;28;20438;-69
2022/02/12 09:11:40;;;;;;;9.53;4.53;;;21.00;24.00;;;;;;5028168;28;20503;-70
2022/02/12 09:14:08;;;;;;;5.17;3.70;;;22.00;22.90;;;;;;5029303;28;20466;-67
2022/02/12 09:16:36;;;;;;;5.83;3.70;;;22.90;21.60;;;;;;5029799;28;20430;-67
2022/02/12 09:19:03;;;;;;;5.47;3.80;;;23.70;21.00;;;;;;5032228;28;20438;-67
2022/02/12 09:21:30;;;;;;;4.87;2.97;;;24.60;20.20;;;;;;5032261;28;20438;-71
2022/02/12 09:23:57;;;;;;;6.30;3.37;;;25.30;19.90;;;;;;5028676;28;20816;-67
2022/02/12 09:26:29;;;;;;;5.03;3.20;;;26.00;18.80;;;;;;5031573;28;20507;-68
2022/02/12 09:28:58;;;;;;;5.10;3.17;;;26.70;17.80;;;;;;5032940;28;20794;-67
2022/02/12 09:31:26;;;;;;;5.60;3.30;;;27.30;17.20;;;;;;5032717;28;20935;-68
2022/02/12 09:33:53;;;;;;;6.23;3.87;;;28.00;16.90;;;;;;5032352;28;20531;-68
2022/02/12 09:36:20;;;;;;;4.47;3.00;;;28.50;15.50;;;;;;5031486;28;20454;-68
2022/02/12 09:38:47;;;;;;;3.90;2.43;;;28.90;15.80;;;;;;5032474;28;20970;-70
2022/02/12 09:41:15;;;;;;;4.47;2.67;;;29.50;15.10;;;;;;5031304;28;20496;-68
2022/02/12 09:43:43;;;;;;;6.53;2.63;;;30.00;14.80;;;;;;5029931;28;20465;-68
2022/02/12 09:46:38;;;;;;;6.00;2.93;;;30.60;13.80;;;;;;5032342;28;20481;-72
2022/02/12 09:49:05;;;;;;;4.50;2.80;;;30.90;13.40;;;;;;5029503;28;20450;-68
2022/02/12 09:51:34;;;;;;;3.07;1.70;;;31.10;12.80;;;;;;5029889;28;20488;-68
2022/02/12 09:54:01;;;;;;;2.80;1.40;;;30.90;11.00;;;;;;5031286;28;20437;-68
2022/02/12 09:56:28;;;;;;;2.53;1.40;;;31.00;12.20;;;;;;5031423;28;20612;-68
2022/02/12 09:58:55;;;;;;;3.63;1.37;;;31.00;10.90;;;;;;5032106;28;20928;-69
2022/02/12 10:01:23;;;;;;;1.90;0.90;;;30.60;10.90;;;;;;5021795;28;20519;-68
2022/02/12 10:03:52;;;;;;;2.80;1.00;;;30.30;10.50;;;;;;5028149;28;20817;-68
2022/02/12 10:06:39;;;;;;;3.40;0.90;;;30.40;11.00;;;;;;5030265;28;20984;-68
2022/02/12 10:09:07;;;;;;;2.20;1.07;;;30.80;10.20;;;;;;5029138;28;20433;-72
2022/02/12 10:11:45;;;;;;;2.60;1.30;;;31.60;11.00;;;;;;5030813;28;20505;-69
2022/02/12 10:14:14;;;;;;;2.20;1.07;;;32.50;10.00;;;;;;5028764;28;20577;-70
2022/02/12 10:17:00;;;;;;;3.33;1.03;;;33.10;10.70;;;;;;5030819;28;20444;-69
2022/02/12 10:19:32;;;;;;;2.20;1.10;;;34.00;10.30;;;;;;5025311;28;20445;-69
2022/02/12 10:22:12;;;;;;;2.70;1.43;;;34.70;9.40;;;;;;5030168;28;20528;-69
2022/02/12 10:24:52;;;;;;;3.60;1.83;;;35.20;8.50;;;;;;5016408;28;20452;-69
2022/02/12 10:27:21;;;;;;;2.60;1.03;;;35.80;8.50;;;;;;5021190;28;20442;-70
2022/02/12 10:29:48;;;;;;;2.80;1.03;;;36.40;8.10;;;;;;5015181;28;20433;-69
2022/02/12 10:32:21;;;;;;;2.73;1.20;;;37.00;8.00;;;;;;5020827;28;20926;-69
2022/02/12 10:34:50;;;;;;;2.77;1.20;;;37.40;6.70;;;;;;5022510;28;20465;-69
2022/02/12 10:37:18;;;;;;;2.10;1.07;;;36.90;6.50;;;;;;5020783;28;21037;-68
2022/02/12 10:39:54;;;;;;;2.20;1.20;;;36.60;6.70;;;;;;5019539;28;20439;-69
2022/02/12 10:42:21;;;;;;;1.90;1.10;;;36.40;6.20;;;;;;5020880;28;20437;-69
2022/02/12 10:44:49;;;;;;;1.87;1.07;;;36.40;7.00;;;;;;5022473;28;20512;-69
2022/02/12 10:47:17;;;;;;;2.83;1.70;;;36.50;6.90;;;;;;5022963;28;20790;-69
2022/02/12 10:49:46;;;;;;;3.20;1.43;;;36.80;7.00;;;;;;5025115;28;20451;-69
2022/02/12 10:52:14;;;;;;;2.40;1.33;;;37.00;7.00;;;;;;5024291;28;21010;-69
2022/02/12 10:54:42;;;;;;;3.10;1.70;;;37.00;6.80;;;;;;5028047;28;20481;-70
2022/02/12 10:57:10;;;;;;;3.00;1.50;;;37.10;6.70;;;;;;5027900;28;20489;-68
2022/02/12 10:59:41;;;;;;;3.80;2.00;;;37.60;7.20;;;;;;5023170;28;20493;-68
2022/02/12 11:02:09;;;;;;;3.50;1.60;;;38.00;6.80;;;;;;5021223;28;20458;-72
2022/02/12 11:04:40;;;;;;;2.73;1.40;;;37.90;5.80;;;;;;5026094;28;20450;-68
2022/02/12 11:07:13;;;;;;;3.90;1.67;;;37.80;6.20;;;;;;5022475;28;20445;-69
2022/02/12 11:09:40;;;;;;;2.90;1.53;;;37.70;5.80;;;;;;5024881;28;20477;-69
2022/02/12 11:12:08;;;;;;;3.33;1.60;;;37.30;5.60;;;;;;5024887;28;20489;-69
2022/02/12 11:14:36;;;;;;;3.00;1.60;;;37.40;5.70;;;;;;5022939;28;20913;-68
2022/02/12 11:17:06;;;;;;;2.97;1.77;;;37.40;5.60;;;;;;5024829;28;20481;-69
2022/02/12 11:19:34;;;;;;;3.83;1.53;;;37.50;5.80;;;;;;5023180;28;20472;-69
2022/02/12 11:22:02;;;;;;;2.60;1.50;;;37.70;6.10;;;;;;5027243;28;20445;-68
2022/02/12 11:24:38;;;;;;;3.60;1.70;;;37.80;5.80;;;;;;5029167;28;20469;-69
2022/02/12 11:27:20;;;;;;;4.27;2.30;;;38.20;5.90;;;;;;5028750;28;20932;-69
2022/02/12 11:29:49;;;;;;;3.63;1.43;;;38.40;5.30;;;;;;5027221;28;20535;-69
2022/02/12 11:32:19;;;;;;;2.40;1.33;;;38.60;5.80;;;;;;5029297;28;20813;-69
2022/02/12 11:35:17;;;;;;;3.07;1.60;;;39.10;6.30;;;;;;5028351;28;20449;-70
2022/02/12 11:37:47;;;;;;;4.50;2.17;;;39.90;4.90;;;;;;5028366;28;20581;-70
2022/02/12 11:40:20;;;;;;;3.03;1.33;;;39.90;5.60;;;;;;5024141;28;20520;-69
2022/02/12 11:42:49;;;;;;;2.23;1.00;;;40.00;4.50;;;;;;5028468;28;20780;-69
2022/02/12 11:45:26;;;;;;;2.63;1.27;;;39.10;4.00;;;;;;5029763;28;20833;-70
2022/02/12 11:48:18;;;;;;;2.97;1.40;;;38.50;4.10;;;;;;5029372;28;20781;-69
2022/02/12 11:50:51;;;;;;;2.37;1.47;;;38.30;4.20;;;;;;5032106;28;20525;-69
2022/02/12 11:53:33;;;;;;;3.40;1.40;;;38.00;4.40;;;;;;5025048;28;21000;-70
2022/02/12 11:56:03;;;;;;;2.87;1.60;;;37.60;4.10;;;;;;5026462;28;20492;-68
2022/02/12 11:59:00;;;;;;;3.20;1.50;;;36.40;4.60;;;;;;5031299;28;20461;-69
2022/02/12 12:01:53;;;;;;;3.87;1.50;;;35.80;5.20;;;;;;5029576;28;20434;-70
2022/02/12 12:04:25;;;;;;;3.30;1.60;;;35.80;5.80;;;;;;5024740;28;20447;-69
2022/02/12 12:07:14;;;;;;;3.70;1.87;;;35.80;5.30;;;;;;5028103;28;20452;-69
2022/02/12 12:10:09;;;;;;;4.00;1.90;;;36.10;5.40;;;;;;5025995;28;20461;-69
2022/02/12 12:12:37;;;;;;;2.20;1.60;;;36.40;6.10;;;;;;5020785;28;21281;-70
2022/02/12 12:15:20;;;;;;;2.20;1.40;;;37.10;6.50;;;;;;5023354;28;20434;-69
2022/02/12 12:17:59;;;;;;;2.63;1.20;;;37.80;4.80;;;;;;5026474;28;20485;-69
2022/02/12 12:20:34;;;;;;;3.10;1.60;;;37.80;4.40;;;;;;5020948;28;21128;-70
2022/02/12 12:23:08;;;;;;;2.93;1.97;;;37.80;4.70;;;;;;5026765;28;20449;-69
2022/02/12 12:26:00;;;;;;;3.63;1.80;;;37.80;5.50;;;;;;5027022;28;20452;-69
2022/02/12 12:28:31;;;;;;;3.33;1.90;;;38.00;5.70;;;;;;5024931;28;20450;-69
2022/02/12 12:30:58;;;;;;;3.50;2.13;;;37.90;5.60;;;;;;5022818;28;20425;-70
2022/02/12 12:33:27;;;;;;;2.33;1.40;;;38.00;5.70;;;;;;5027778;28;20448;-69
2022/02/12 12:35:56;;;;;;;2.33;1.30;;;38.20;4.60;;;;;;5025107;28;20448;-70
2022/02/12 12:38:36;;;;;;;2.40;1.43;;;38.00;4.70;;;;;;5024058;28;20838;-69
2022/02/12 12:41:25;;;;;;;3.10;1.43;;;37.50;4.40;;;;;;5027522;28;20450;-69
2022/02/12 12:44:11;;;;;;;3.50;2.10;;;37.20;4.70;;;;;;5030251;28;20438;-69
2022/02/12 12:46:40;;;;;;;7.10;1.67;;;37.20;5.40;;;;;;5035043;28;20519;-69
2022/02/12 12:49:09;;;;;;;2.80;1.60;;;37.40;5.50;;;;;;5035414;28;21002;-69
2022/02/12 12:51:36;;;;;;;2.50;1.70;;;37.30;5.60;;;;;;5035463;28;20495;-69
2022/02/12 12:54:04;;;;;;;2.53;1.63;;;36.90;5.50;;;;;;5034168;28;20452;-69
2022/02/12 12:56:31;;;;;;;2.13;1.17;;;37.00;5.90;;;;;;5035273;28;20531;-69
2022/02/12 12:59:06;;;;;;;2.70;1.70;;;36.60;4.90;;;;;;5035248;28;20495;-73
2022/02/12 13:01:35;;;;;;;3.83;1.40;;;35.80;5.30;;;;;;5035108;28;20473;-69
2022/02/12 13:04:03;;;;;;;2.13;1.57;;;35.40;5.30;;;;;;5035316;28;20445;-69
2022/02/12 13:06:31;;;;;;;3.80;1.30;;;35.30;5.60;;;;;;5035038;28;20438;-69